Time;durP1;ratioP1;P1;durP2;ratioP2;P2;SDS_P1;SDS_P2;PMS_P1;PMS_P2;Temp;Humidity;BMP_temperature;BMP_pressure;BME280_temperature;BME280_humidity;BME280_pressure;Samples;Min_cycle;Max_cycle;Signal;HPM_P1;HPM_P2
2022/12/11 08:59:09;;;;;;;;;;;;;;;2.28;55.15;96042.16;4246718;27;10304;-65
2022/12/11 09:01:14;;;;;;;;;;;;;;;2.58;54.52;96045.09;4240189;27;5612;-66
2022/12/11 09:03:17;;;;;;;;;;;;;;;2.83;54.36;96054.59;4241922;27;5720;-65
2022/12/11 09:05:19;;;;;;;;;;;;;;;3.00;53.80;96046.75;4237109;27;5757;-66
2022/12/11 09:07:22;;;;;;;;;;;;;;;3.20;53.96;96043.63;4230042;27;5692;-66
2022/12/11 09:09:25;;;;;;;;;;;;;;;3.43;53.67;96045.56;4233573;27;5732;-66
2022/12/11 09:11:30;;;;;;;;;;;;;;;3.60;53.56;96044.53;4237183;27;5617;-66
2022/12/11 09:13:33;;;;;;;;;;;;;;;3.71;52.95;96053.81;4239932;27;5657;-67
2022/12/11 09:15:40;;;;;;;;;;;;;;;3.72;52.76;96053.63;4242582;27;5731;-64
2022/12/11 09:17:43;;;;;;;;;;;;;;;3.80;52.79;96061.44;4243095;27;5685;-65
2022/12/11 09:19:46;;;;;;;;;;;;;;;3.95;52.90;96048.47;4243992;27;5618;-65
2022/12/11 09:21:48;;;;;;;;;;;;;;;4.05;52.51;96054.31;4246744;27;5693;-65
2022/12/11 09:23:53;;;;;;;;;;;;;;;4.14;52.57;96051.66;4245711;27;5586;-64
2022/12/11 09:25:56;;;;;;;;;;;;;;;4.24;52.50;96052.28;4243152;27;5107;-64
2022/12/11 09:27:58;;;;;;;;;;;;;;;4.33;52.06;96057.31;4240441;27;7706;-65
2022/12/11 09:30:01;;;;;;;;;;;;;;;4.38;52.07;96064.63;4244126;27;5815;-64
2022/12/11 09:32:06;;;;;;;;;;;;;;;4.46;52.25;96055.91;4235907;27;5185;-65
2022/12/11 09:34:12;;;;;;;;;;;;;;;4.50;51.53;96052.78;4238382;27;7368;-65
2022/12/11 09:36:14;;;;;;;;;;;;;;;4.51;51.78;96049.16;4245010;27;5676;-65
2022/12/11 09:38:17;;;;;;;;;;;;;;;4.61;51.78;96054.19;4244807;27;5669;-65
2022/12/11 09:40:20;;;;;;;;;;;;;;;4.63;51.48;96050.38;4244203;27;5700;-65
2022/12/11 09:42:32;;;;;;;;;;;;;;;4.63;51.10;96053.00;4242697;27;5720;-65
2022/12/11 09:44:40;;;;;;;;;;;;;;;4.57;50.79;96034.56;4242898;27;6513;-65
2022/12/11 09:46:44;;;;;;;;;;;;;;;4.61;51.26;96043.69;4245232;27;5605;-65
2022/12/11 09:48:49;;;;;;;;;;;;;;;4.67;51.36;96041.22;4234314;27;5628;-65
2022/12/11 09:50:54;;;;;;;;;;;;;;;4.77;51.09;96048.03;4239221;27;5602;-65
2022/12/11 09:53:08;;;;;;;;;;;;;;;4.82;51.13;96050.91;4238268;27;5637;-65
2022/12/11 09:55:16;;;;;;;;;;;;;;;4.89;51.10;96060.53;4222946;28;5736;-67
2022/12/11 09:57:29;;;;;;;;;;;;;;;4.92;50.99;96057.56;4243750;27;5618;-65
2022/12/11 09:59:45;;;;;;;;;;;;;;;5.00;50.79;96053.25;4215518;28;5782;-65
2022/12/11 10:01:54;;;;;;;;;;;;;;;5.03;50.67;96061.56;4238929;27;5725;-69
2022/12/11 10:04:31;;;;;;;;;;;;;;;5.03;50.62;96063.38;4220596;28;5632;-68
2022/12/11 10:06:41;;;;;;;;;;;;;;;5.04;50.63;96055.31;4230848;27;5673;-72
2022/12/11 10:08:56;;;;;;;;;;;;;;;5.10;50.42;96059.88;4232036;27;5568;-70
2022/12/11 10:11:18;;;;;;;;;;;;;;;5.10;50.30;96070.34;4237932;27;5722;-70
2022/12/11 10:13:30;;;;;;;;;;;;;;;5.09;50.29;96079.19;4226678;28;5590;-72
2022/12/11 10:15:39;;;;;;;;;;;;;;;5.12;50.33;96076.22;4226225;28;5697;-72
2022/12/11 10:17:44;;;;;;;;;;;;;;;5.18;50.03;96077.31;4234910;28;5767;-72
2022/12/11 10:19:49;;;;;;;;;;;;;;;5.18;49.66;96072.88;4227168;28;5653;-72
2022/12/11 10:21:52;;;;;;;;;;;;;;;5.09;49.46;96063.47;4226992;27;5594;-70
2022/12/11 10:24:00;;;;;;;;;;;;;;;4.97;49.42;96057.00;4226758;28;5699;-70
2022/12/11 10:26:05;;;;;;;;;;;;;;;4.97;49.54;96055.22;4229295;28;5833;-70
2022/12/11 10:28:13;;;;;;;;;;;;;;;5.03;49.56;96051.09;4224355;28;5760;-71
2022/12/11 10:30:18;;;;;;;;;;;;;;;5.08;49.60;96048.72;4227032;28;5613;-71
2022/12/11 10:32:24;;;;;;;;;;;;;;;5.15;49.11;96046.22;4230861;28;5902;-71
2022/12/11 10:34:34;;;;;;;;;;;;;;;5.17;49.22;96044.25;4229368;28;5617;-71
2022/12/11 10:36:40;;;;;;;;;;;;;;;5.17;49.28;96055.53;4226213;28;5768;-70
2022/12/11 10:38:44;;;;;;;;;;;;;;;5.21;49.15;96051.59;4229354;28;6322;-70
2022/12/11 10:40:50;;;;;;;;;;;;;;;5.25;48.97;96055.47;4225327;28;5586;-70
2022/12/11 10:42:54;;;;;;;;;;;;;;;5.26;49.17;96048.44;4226358;28;5720;-73
2022/12/11 10:44:59;;;;;;;;;;;;;;;5.28;49.10;96046.44;4230866;28;5925;-73
2022/12/11 10:47:04;;;;;;;;;;;;;;;5.34;49.05;96044.94;4229408;28;5597;-73
2022/12/11 10:49:21;;;;;;;;;;;;;;;5.38;48.67;96046.19;4223706;27;5764;-71
2022/12/11 10:51:33;;;;;;;;;;;;;;;5.36;48.63;96038.50;4222580;28;5732;-66
2022/12/11 10:53:39;;;;;;;;;;;;;;;5.38;48.68;96035.69;4225631;27;5593;-68
2022/12/11 10:55:44;;;;;;;;;;;;;;;5.35;48.59;96034.25;4233400;27;5618;-68
2022/12/11 10:57:55;;;;;;;;;;;;;;;5.38;48.40;96040.94;4229255;27;5842;-73
2022/12/11 11:00:00;;;;;;;;;;;;;;;5.37;48.26;96031.44;4240740;27;6401;-78
2022/12/11 11:02:06;;;;;;;;;;;;;;;5.42;48.37;96029.09;4243714;27;6284;-75
2022/12/11 11:04:18;;;;;;;;;;;;;;;5.46;48.18;96027.75;4221257;27;5673;-77
2022/12/11 11:06:22;;;;;;;;;;;;;;;5.45;48.15;96032.19;4222433;27;5685;-75
2022/12/11 11:08:27;;;;;;;;;;;;;;;5.41;47.80;96030.09;4225143;27;5617;-79
2022/12/11 11:10:32;;;;;;;;;;;;;;;5.43;48.04;96034.16;4228855;28;5625;-73
2022/12/11 11:12:39;;;;;;;;;;;;;;;5.50;47.89;96029.03;4229638;27;5707;-83
2022/12/11 11:14:42;;;;;;;;;;;;;;;5.54;47.91;96023.22;4229506;28;5692;-73
2022/12/11 11:16:46;;;;;;;;;;;;;;;5.57;47.69;96021.25;4226206;28;5748;-79
2022/12/11 11:18:52;;;;;;;;;;;;;;;5.57;47.73;96014.22;4232461;27;5754;-82
2022/12/11 11:20:55;;;;;;;;;;;;;;;5.60;47.27;96019.09;4232301;28;5597;-82
2022/12/11 11:23:01;;;;;;;;;;;;;;;5.62;47.29;96016.28;4226802;28;5123;-80
2022/12/11 11:25:04;;;;;;;;;;;;;;;5.64;47.25;96015.09;4223501;28;7676;-83
2022/12/11 11:27:23;;;;;;;;;;;;;;;5.67;47.23;96011.31;4215971;27;6385;-78
2022/12/11 11:29:31;;;;;;;;;;;;;;;5.68;47.29;96011.13;4224319;28;5730;-83
2022/12/11 11:31:35;;;;;;;;;;;;;;;5.68;47.16;96012.94;4227889;27;5677;-83
2022/12/11 11:33:48;;;;;;;;;;;;;;;5.65;46.96;96010.66;4237257;27;5779;-79
2022/12/11 11:35:56;;;;;;;;;;;;;;;5.64;47.01;96009.84;4216403;28;5836;-79
2022/12/11 11:38:05;;;;;;;;;;;;;;;5.67;47.10;96006.88;4226334;27;5684;-73
2022/12/11 11:40:15;;;;;;;;;;;;;;;5.67;47.11;96006.88;4230875;27;5603;-75
2022/12/11 11:42:26;;;;;;;;;;;;;;;5.71;46.99;96000.28;4228209;27;5681;-71
2022/12/11 11:44:34;;;;;;;;;;;;;;;5.77;46.91;96007.41;4239110;27;5590;-69
2022/12/11 11:46:42;;;;;;;;;;;;;;;5.80;46.84;96001.00;4223974;27;5620;-74
2022/12/11 11:48:53;;;;;;;;;;;;;;;5.80;46.59;96003.63;4221383;28;5759;-70
2022/12/11 11:50:57;;;;;;;;;;;;;;;5.82;46.66;96002.44;4220819;28;5827;-65
2022/12/11 11:53:05;;;;;;;;;;;;;;;5.81;46.70;95998.19;4233726;27;5773;-78
2022/12/11 11:55:15;;;;;;;;;;;;;;;5.82;46.70;96006.88;4222833;27;6485;-72
2022/12/11 11:57:35;;;;;;;;;;;;;;;5.83;46.48;95992.75;4223848;27;5769;-72
2022/12/11 11:59:43;;;;;;;;;;;;;;;5.84;46.54;95989.13;4224231;28;5704;-74
2022/12/11 12:01:46;;;;;;;;;;;;;;;5.85;46.40;96002.06;4210937;28;5620;-75
2022/12/11 12:03:50;;;;;;;;;;;;;;;5.87;46.51;95988.75;4219126;27;6051;-75
2022/12/11 12:05:57;;;;;;;;;;;;;;;5.90;46.47;95992.84;4224968;28;5828;-75
2022/12/11 12:08:10;;;;;;;;;;;;;;;5.92;46.24;95981.19;4232411;27;7156;-67
2022/12/11 12:10:21;;;;;;;;;;;;;;;5.96;46.22;95976.38;4217877;27;5756;-71
2022/12/11 12:12:35;;;;;;;;;;;;;;;5.95;46.40;95972.13;4224825;27;5832;-72
2022/12/11 12:14:50;;;;;;;;;;;;;;;5.94;46.24;95970.50;4215411;28;5756;-73
2022/12/11 12:17:06;;;;;;;;;;;;;;;5.95;46.27;95966.91;4224701;28;5891;-75
2022/12/11 12:19:19;;;;;;;;;;;;;;;5.97;46.20;95970.13;4224869;27;5796;-72
2022/12/11 12:21:31;;;;;;;;;;;;;;;6.00;46.02;95967.13;4220100;27;5851;-77
2022/12/11 12:23:49;;;;;;;;;;;;;;;6.00;45.89;95959.28;4238069;27;5095;-76
2022/12/11 12:25:57;;;;;;;;;;;;;;;6.00;46.21;95967.97;4234764;27;5634;-71
2022/12/11 12:28:12;;;;;;;;;;;;;;;6.03;45.91;95972.84;4227465;27;5828;-70
2022/12/11 12:30:18;;;;;;;;;;;;;;;6.03;45.85;95977.28;4230140;27;5697;-65
2022/12/11 12:32:32;;;;;;;;;;;;;;;5.98;45.70;95969.94;4224590;27;5684;-64
2022/12/11 12:34:55;;;;;;;;;;;;;;;6.00;45.67;95977.63;4221465;27;5692;-64
2022/12/11 12:37:06;;;;;;;;;;;;;;;6.02;45.70;95975.66;4224588;27;5796;-65
2022/12/11 12:39:22;;;;;;;;;;;;;;;6.00;45.64;95967.13;4229217;27;6235;-66
2022/12/11 12:41:38;;;;;;;;;;;;;;;6.02;45.77;95967.78;4232548;27;5674;-64
2022/12/11 12:44:12;;;;;;;;;;;;;;;6.04;45.52;95971.03;4217553;27;5783;-65
2022/12/11 12:46:27;;;;;;;;;;;;;;;6.07;45.36;95979.34;4223612;27;5692;-65
2022/12/11 12:48:30;;;;;;;;;;;;;;;6.07;45.26;95978.53;4228739;27;5729;-65
2022/12/11 12:50:38;;;;;;;;;;;;;;;6.04;45.16;95974.47;4227195;27;5906;-65
2022/12/11 12:52:43;;;;;;;;;;;;;;;6.01;45.34;95981.91;4234288;27;5776;-65
2022/12/11 12:57:08;;;;;;;;;;;;;;;6.03;45.25;95961.53;4222997;27;5095;-66
2022/12/11 12:59:21;;;;;;;;;;;;;;;6.04;45.47;95963.16;4225986;27;5748;-65
2022/12/11 13:01:26;;;;;;;;;;;;;;;6.05;45.29;95964.78;4236952;27;5733;-66
2022/12/11 13:03:32;;;;;;;;;;;;;;;6.07;45.26;95965.41;4224864;27;5689;-65
2022/12/11 13:05:35;;;;;;;;;;;;;;;6.05;45.27;95967.41;4232889;27;5601;-66
2022/12/11 13:07:49;;;;;;;;;;;;;;;6.07;45.33;95963.59;4225523;28;5958;-68
2022/12/11 13:09:59;;;;;;;;;;;;;;;6.08;45.09;95964.41;4223175;28;5673;-66
2022/12/11 13:12:13;;;;;;;;;;;;;;;6.06;45.25;95961.16;4227688;28;6439;-65
2022/12/11 13:14:29;;;;;;;;;;;;;;;6.05;45.05;95960.34;4214995;27;6776;-66
2022/12/11 13:16:36;;;;;;;;;;;;;;;6.03;44.99;95961.53;4227233;28;5752;-66
2022/12/11 13:18:39;;;;;;;;;;;;;;;6.05;45.20;95949.06;4219266;28;5688;-66
2022/12/11 13:20:49;;;;;;;;;;;;;;;6.03;45.20;95951.06;4223306;28;5937;-67
2022/12/11 13:23:09;;;;;;;;;;;;;;;5.99;45.08;95955.03;4204949;28;5609;-67
2022/12/11 13:25:23;;;;;;;;;;;;;;;6.02;45.01;95954.69;4222938;27;5731;-65
2022/12/11 13:27:36;;;;;;;;;;;;;;;6.01;45.06;95947.81;4237183;27;5610;-66
2022/12/11 13:29:42;;;;;;;;;;;;;;;6.03;45.02;95953.69;4225879;28;5641;-66
2022/12/11 13:31:45;;;;;;;;;;;;;;;6.03;45.09;95951.06;4226613;28;5689;-66
2022/12/11 13:33:50;;;;;;;;;;;;;;;6.01;44.80;95953.06;4223968;28;5763;-66
2022/12/11 13:36:26;;;;;;;;;;;;;;;5.99;44.91;95939.28;4234422;28;5594;-67
2022/12/11 13:38:29;;;;;;;;;;;;;;;6.00;44.91;95954.03;4226587;27;5771;-66
2022/12/11 13:40:38;;;;;;;;;;;;;;;6.03;44.84;95956.31;4229407;27;5665;-66
2022/12/11 13:42:49;;;;;;;;;;;;;;;6.03;44.88;95945.81;4229940;28;5628;-66
2022/12/11 13:44:53;;;;;;;;;;;;;;;6.02;44.82;95952.06;4237630;27;5581;-66
2022/12/11 13:46:58;;;;;;;;;;;;;;;5.98;44.63;95948.16;4251861;27;5665;-65
2022/12/11 13:49:04;;;;;;;;;;;;;;;5.93;44.80;95942.66;4235525;27;5595;-65
2022/12/11 13:51:07;;;;;;;;;;;;;;;5.95;44.92;95940.66;4235881;27;5583;-67
2022/12/11 13:53:15;;;;;;;;;;;;;;;5.99;44.92;95939.28;4250527;27;5583;-66
2022/12/11 13:55:25;;;;;;;;;;;;;;;6.03;44.70;95940.56;4228617;28;5614;-65
2022/12/11 13:57:28;;;;;;;;;;;;;;;6.04;44.76;95944.81;4233079;27;5665;-67
2022/12/11 13:59:34;;;;;;;;;;;;;;;6.00;44.69;95946.16;4229057;27;5603;-65
2022/12/11 14:01:39;;;;;;;;;;;;;;;6.01;44.72;95939.94;4224663;27;5693;-65
2022/12/11 14:03:50;;;;;;;;;;;;;;;6.02;44.55;95944.19;4192124;28;5132;-66
2022/12/11 14:05:53;;;;;;;;;;;;;;;5.99;44.65;95952.41;4228704;27;5697;-66
2022/12/11 14:08:02;;;;;;;;;;;;;;;5.97;44.72;95949.16;4228464;27;5780;-66
2022/12/11 14:10:08;;;;;;;;;;;;;;;5.99;44.77;95947.16;4226707;27;5095;-65
2022/12/11 14:12:17;;;;;;;;;;;;;;;5.96;44.60;95945.72;4225191;27;6312;-66
2022/12/11 14:14:23;;;;;;;;;;;;;;;5.95;44.67;95951.16;4225109;27;7386;-65
2022/12/11 14:16:26;;;;;;;;;;;;;;;5.94;44.56;95941.66;4222478;28;5660;-66
2022/12/11 14:18:33;;;;;;;;;;;;;;;5.95;44.70;95953.78;4228346;27;5693;-66
2022/12/11 14:20:35;;;;;;;;;;;;;;;5.97;44.67;95946.53;4231982;27;6312;-66
2022/12/11 14:22:38;;;;;;;;;;;;;;;5.96;44.63;95944.91;4226660;27;5685;-66
2022/12/11 14:24:49;;;;;;;;;;;;;;;5.98;44.74;95951.59;4230165;27;5669;-64
2022/12/11 14:26:53;;;;;;;;;;;;;;;5.97;44.63;95941.28;4232511;27;5597;-65
2022/12/11 14:28:56;;;;;;;;;;;;;;;5.96;44.75;95950.97;4236172;27;5793;-65
2022/12/11 14:31:01;;;;;;;;;;;;;;;5.94;44.77;95949.53;4230509;27;5665;-65
2022/12/11 14:33:05;;;;;;;;;;;;;;;5.93;44.69;95955.78;4226655;27;5688;-66
2022/12/11 14:35:23;;;;;;;;;;;;;;;5.94;44.59;95952.16;4224603;27;5673;-66
2022/12/11 14:37:27;;;;;;;;;;;;;;;5.92;44.52;95952.34;4229170;27;5602;-65
2022/12/11 14:39:34;;;;;;;;;;;;;;;5.85;44.61;95954.84;4226000;28;5862;-65
2022/12/11 14:41:44;;;;;;;;;;;;;;;5.76;44.83;95940.19;4229664;27;6630;-66
2022/12/11 14:43:49;;;;;;;;;;;;;;;5.74;44.86;95944.00;4226709;27;5621;-66
2022/12/11 14:45:58;;;;;;;;;;;;;;;5.73;44.71;95940.56;4220786;27;5836;-66
2022/12/11 14:48:04;;;;;;;;;;;;;;;5.76;44.96;95939.38;4229850;27;5705;-66
2022/12/11 14:50:16;;;;;;;;;;;;;;;5.80;44.82;95946.72;4231047;27;5609;-65
2022/12/11 14:52:23;;;;;;;;;;;;;;;5.83;44.96;95951.59;4226093;27;5768;-65
2022/12/11 14:54:31;;;;;;;;;;;;;;;5.88;44.86;95951.03;4227771;27;5740;-65
2022/12/11 14:56:34;;;;;;;;;;;;;;;5.91;44.74;95953.34;4229711;27;5687;-65
2022/12/11 14:58:43;;;;;;;;;;;;;;;5.90;44.71;95945.63;4229160;27;5763;-65
2022/12/11 15:00:57;;;;;;;;;;;;;;;5.90;44.73;95961.38;4224717;27;5756;-64
2022/12/11 15:03:02;;;;;;;;;;;;;;;5.94;44.83;95952.16;4227169;27;5606;-65
2022/12/11 15:05:16;;;;;;;;;;;;;;;5.93;44.82;95958.41;4223796;27;5624;-65
2022/12/11 15:07:21;;;;;;;;;;;;;;;5.85;44.80;95952.22;4228691;27;5099;-65
2022/12/11 15:09:26;;;;;;;;;;;;;;;5.80;44.38;95949.34;4225768;27;5846;-65
2022/12/11 15:11:32;;;;;;;;;;;;;;;5.72;44.87;95959.94;4228343;27;5696;-65
2022/12/11 15:13:37;;;;;;;;;;;;;;;5.73;44.82;95950.25;4229038;27;5704;-65
2022/12/11 15:15:46;;;;;;;;;;;;;;;5.73;44.78;95951.06;4223771;27;5692;-65
2022/12/11 15:17:51;;;;;;;;;;;;;;;5.76;44.80;95958.56;4227112;28;5685;-67
2022/12/11 15:19:59;;;;;;;;;;;;;;;5.82;44.83;95962.28;4225683;27;5696;-68
2022/12/11 15:22:06;;;;;;;;;;;;;;;5.81;44.75;95958.03;4226840;27;5605;-67
2022/12/11 15:24:24;;;;;;;;;;;;;;;5.81;44.77;95964.09;4225072;27;5697;-70
2022/12/11 15:26:34;;;;;;;;;;;;;;;5.76;44.49;95961.19;4223092;27;5764;-75
2022/12/11 15:28:38;;;;;;;;;;;;;;;5.71;44.57;95965.38;4223893;27;5708;-75
2022/12/11 15:30:41;;;;;;;;;;;;;;;5.69;44.67;95967.38;4222989;27;5625;-74
2022/12/11 15:32:45;;;;;;;;;;;;;;;5.66;44.61;95971.13;4227709;27;5808;-71
2022/12/11 15:34:50;;;;;;;;;;;;;;;5.64;44.88;95954.78;4220751;27;5849;-71
2022/12/11 15:36:53;;;;;;;;;;;;;;;5.66;44.69;95965.91;4220351;27;5716;-71
2022/12/11 15:38:58;;;;;;;;;;;;;;;5.67;44.57;95967.56;4225899;28;5605;-70
2022/12/11 15:41:02;;;;;;;;;;;;;;;5.64;44.67;95957.41;4224317;27;5630;-71
2022/12/11 15:43:05;;;;;;;;;;;;;;;5.64;44.78;95972.31;4223166;27;5759;-70
2022/12/11 15:45:15;;;;;;;;;;;;;;;5.63;44.56;95973.31;4221695;27;5680;-65
2022/12/11 15:47:22;;;;;;;;;;;;;;;5.59;44.45;95977.31;4221451;27;5753;-66
2022/12/11 15:49:24;;;;;;;;;;;;;;;5.59;44.74;95975.50;4226479;27;5668;-67
2022/12/11 15:51:27;;;;;;;;;;;;;;;5.58;44.62;95979.13;4221442;28;5759;-68
2022/12/11 15:53:30;;;;;;;;;;;;;;;5.55;44.58;95974.25;4226679;27;5736;-68
2022/12/11 15:55:34;;;;;;;;;;;;;;;5.51;44.66;95978.22;4227930;27;6148;-68
2022/12/11 15:57:39;;;;;;;;;;;;;;;5.51;44.60;95986.06;4226556;27;5681;-68
2022/12/11 15:59:42;;;;;;;;;;;;;;;5.51;44.62;95988.69;4225995;27;5857;-68
2022/12/11 16:01:45;;;;;;;;;;;;;;;5.54;44.50;95983.09;4222612;27;5914;-64
2022/12/11 16:03:49;;;;;;;;;;;;;;;5.50;44.66;95981.84;4224934;27;5729;-64
2022/12/11 16:05:52;;;;;;;;;;;;;;;5.46;44.71;95983.19;4224602;27;5764;-64
2022/12/11 16:07:58;;;;;;;;;;;;;;;5.44;44.54;95979.94;4226362;27;5848;-64
2022/12/11 16:10:01;;;;;;;;;;;;;;;5.43;44.59;95980.91;4221624;27;5956;-64
2022/12/11 16:12:06;;;;;;;;;;;;;;;5.44;44.63;95987.81;4223040;28;5709;-64
2022/12/11 16:14:08;;;;;;;;;;;;;;;5.39;44.61;95990.16;4221406;27;5863;-64
2022/12/11 16:16:11;;;;;;;;;;;;;;;5.34;44.56;95988.06;4218094;28;5753;-64
2022/12/11 16:18:16;;;;;;;;;;;;;;;5.32;44.49;95989.22;4225170;27;5699;-64
2022/12/11 16:20:19;;;;;;;;;;;;;;;5.31;44.50;95987.59;4225288;27;5781;-63
2022/12/11 16:22:22;;;;;;;;;;;;;;;5.29;44.63;95984.34;4226824;27;5597;-64
2022/12/11 16:24:25;;;;;;;;;;;;;;;5.26;44.30;95991.59;4225090;27;5740;-65
2022/12/11 16:26:27;;;;;;;;;;;;;;;5.22;44.56;95986.91;4224637;27;5681;-64
2022/12/11 16:28:31;;;;;;;;;;;;;;;5.20;44.52;95991.47;4221731;27;5827;-63
2022/12/11 16:30:36;;;;;;;;;;;;;;;5.21;44.45;95999.19;4222902;27;5772;-64
2022/12/11 16:32:39;;;;;;;;;;;;;;;5.22;44.48;95994.75;4222021;27;5676;-64
2022/12/11 16:34:42;;;;;;;;;;;;;;;5.22;44.55;95995.56;4219861;28;5685;-65
2022/12/11 16:36:45;;;;;;;;;;;;;;;5.23;44.40;95999.81;4224557;27;5677;-64
2022/12/11 16:38:48;;;;;;;;;;;;;;;5.22;44.32;96000.00;4225007;27;5685;-64
2022/12/11 16:41:00;;;;;;;;;;;;;;;5.20;44.42;95997.53;4224286;27;5710;-65
2022/12/11 16:43:04;;;;;;;;;;;;;;;5.19;44.41;95995.91;4223896;27;6026;-65
2022/12/11 16:45:12;;;;;;;;;;;;;;;5.17;44.48;95987.41;4223008;27;7137;-65
2022/12/11 16:47:16;;;;;;;;;;;;;;;5.15;44.19;95989.41;4222604;27;5716;-65
2022/12/11 16:49:19;;;;;;;;;;;;;;;5.12;44.38;95981.91;4226049;27;5681;-65
2022/12/11 16:51:21;;;;;;;;;;;;;;;5.16;44.37;95985.78;4225066;27;5724;-64
2022/12/11 16:53:24;;;;;;;;;;;;;;;5.14;44.28;95982.53;4222115;27;5847;-65
2022/12/11 16:55:27;;;;;;;;;;;;;;;5.15;44.24;95989.41;4222773;28;5825;-65
2022/12/11 16:57:30;;;;;;;;;;;;;;;5.11;44.15;95985.53;4221688;27;5699;-64
2022/12/11 16:59:33;;;;;;;;;;;;;;;5.06;44.26;95982.59;4219797;27;5821;-64
2022/12/11 17:01:40;;;;;;;;;;;;;;;5.08;44.17;95988.47;4236504;27;5680;-64
2022/12/11 17:03:45;;;;;;;;;;;;;;;5.07;44.28;95986.84;4223807;28;5897;-64
2022/12/11 17:05:48;;;;;;;;;;;;;;;5.04;44.04;95997.69;4221339;28;5753;-64
2022/12/11 17:07:50;;;;;;;;;;;;;;;4.99;44.25;95994.81;4224171;28;5570;-64
2022/12/11 17:09:53;;;;;;;;;;;;;;;5.01;44.11;95992.00;4240310;27;5678;-64
2022/12/11 17:11:56;;;;;;;;;;;;;;;4.92;44.14;95996.50;4238534;27;5688;-64
2022/12/11 17:14:00;;;;;;;;;;;;;;;4.88;44.13;95992.63;4227313;28;5605;-64
2022/12/11 17:16:04;;;;;;;;;;;;;;;4.92;44.14;95999.13;4233210;27;5685;-64
2022/12/11 17:18:09;;;;;;;;;;;;;;;4.96;44.13;95995.16;4227421;27;5594;-64
2022/12/11 17:20:12;;;;;;;;;;;;;;;4.99;44.12;96002.66;4224347;27;5815;-71
2022/12/11 17:22:15;;;;;;;;;;;;;;;5.01;44.17;96003.31;4225328;27;6286;-73
2022/12/11 17:24:18;;;;;;;;;;;;;;;5.01;43.97;96005.09;4232151;27;5876;-73
2022/12/11 17:26:20;;;;;;;;;;;;;;;4.96;43.97;96006.44;4230868;27;5598;-73
2022/12/11 17:28:23;;;;;;;;;;;;;;;4.94;44.02;96011.03;4233526;27;5855;-73
2022/12/11 17:30:26;;;;;;;;;;;;;;;4.93;43.98;95998.94;4238914;27;5782;-72
2022/12/11 17:32:29;;;;;;;;;;;;;;;4.93;44.06;96000.75;4233252;27;5641;-73
2022/12/11 17:34:33;;;;;;;;;;;;;;;4.92;43.94;95999.94;4231184;27;5609;-77
2022/12/11 17:36:40;;;;;;;;;;;;;;;4.97;43.92;96008.06;4229218;27;5673;-75
2022/12/11 17:38:43;;;;;;;;;;;;;;;4.92;43.99;95999.13;4223981;27;5720;-73
2022/12/11 17:40:46;;;;;;;;;;;;;;;4.87;44.03;96001.44;4216936;28;5601;-71
2022/12/11 17:42:48;;;;;;;;;;;;;;;4.91;44.00;96007.97;4228402;27;5617;-68
2022/12/11 17:44:51;;;;;;;;;;;;;;;4.96;43.99;96006.44;4227646;27;5665;-68
2022/12/11 17:46:54;;;;;;;;;;;;;;;5.02;43.84;96001.50;4229022;28;5818;-72
2022/12/11 17:48:59;;;;;;;;;;;;;;;5.06;43.71;96003.56;4211495;28;5807;-74
2022/12/11 17:51:05;;;;;;;;;;;;;;;5.07;43.92;95996.53;4214852;28;5711;-72
2022/12/11 17:53:08;;;;;;;;;;;;;;;5.06;43.72;96000.13;4227303;27;5804;-70
2022/12/11 17:55:11;;;;;;;;;;;;;;;5.05;43.98;95998.50;4232093;27;5678;-79
2022/12/11 17:57:14;;;;;;;;;;;;;;;5.10;43.85;96004.03;4233999;27;5609;-72
2022/12/11 17:59:17;;;;;;;;;;;;;;;5.14;43.79;96002.69;4225855;27;5673;-83
2022/12/11 18:01:20;;;;;;;;;;;;;;;5.17;43.69;95997.91;4225782;27;5796;-74
2022/12/11 18:03:24;;;;;;;;;;;;;;;5.19;43.71;95995.09;4227792;27;5747;-75
2022/12/11 18:05:29;;;;;;;;;;;;;;;5.18;43.60;95991.66;4227851;27;5594;-73
2022/12/11 18:07:39;;;;;;;;;;;;;;;5.22;43.54;96000.00;4230552;27;5681;-79
2022/12/11 18:09:43;;;;;;;;;;;;;;;5.20;43.50;95992.28;4238620;27;5779;-76
2022/12/11 18:11:46;;;;;;;;;;;;;;;5.13;43.72;95985.34;4232703;28;5689;-72
2022/12/11 18:13:52;;;;;;;;;;;;;;;5.23;43.54;95996.38;4228706;28;5764;-72
2022/12/11 18:16:01;;;;;;;;;;;;;;;5.33;43.52;96001.38;4232607;27;5606;-74
2022/12/11 18:18:04;;;;;;;;;;;;;;;5.36;43.40;96004.44;4227427;28;5760;-73
2022/12/11 18:20:12;;;;;;;;;;;;;;;5.38;43.46;95999.81;4211151;28;5817;-71
2022/12/11 18:22:15;;;;;;;;;;;;;;;5.40;43.58;96002.25;4230015;27;5705;-71
2022/12/11 18:24:20;;;;;;;;;;;;;;;5.37;43.56;96000.00;4230788;27;5693;-69
2022/12/11 18:26:27;;;;;;;;;;;;;;;5.34;43.44;96006.44;4226250;28;5752;-69
2022/12/11 18:28:31;;;;;;;;;;;;;;;5.35;43.48;96002.00;4223651;28;5752;-70
2022/12/11 18:30:34;;;;;;;;;;;;;;;5.38;43.42;95999.00;4223735;28;5755;-69
2022/12/11 18:32:37;;;;;;;;;;;;;;;5.38;43.45;96009.50;4217867;28;5612;-67
2022/12/11 18:34:40;;;;;;;;;;;;;;;5.39;43.48;96009.31;4231515;27;5221;-68
2022/12/11 18:36:42;;;;;;;;;;;;;;;5.39;43.50;96005.88;4229614;27;5689;-70
2022/12/11 18:38:48;;;;;;;;;;;;;;;5.35;43.59;96008.06;4230493;27;5781;-68
2022/12/11 18:40:52;;;;;;;;;;;;;;;5.37;43.48;96013.91;4231664;28;5667;-74
2022/12/11 18:42:58;;;;;;;;;;;;;;;5.39;43.55;96005.88;4237175;27;5601;-74
2022/12/11 18:45:02;;;;;;;;;;;;;;;5.39;43.44;96006.69;4231774;28;5593;-74
2022/12/11 18:47:07;;;;;;;;;;;;;;;5.40;43.51;96002.25;4233903;27;5721;-76
2022/12/11 18:49:14;;;;;;;;;;;;;;;5.43;43.38;96015.00;4233047;27;5606;-76
2022/12/11 18:51:22;;;;;;;;;;;;;;;5.40;43.43;96010.13;4228256;28;5681;-74
2022/12/11 18:53:25;;;;;;;;;;;;;;;5.42;43.48;96006.31;4226768;28;5755;-71
2022/12/11 18:55:28;;;;;;;;;;;;;;;5.40;43.38;96018.78;4218492;28;5755;-73
2022/12/11 18:57:32;;;;;;;;;;;;;;;5.37;43.39;96005.25;4222257;28;5601;-74
2022/12/11 18:59:42;;;;;;;;;;;;;;;5.35;43.41;96009.84;4222909;28;5846;-72
2022/12/11 19:01:45;;;;;;;;;;;;;;;5.36;43.54;96011.47;4230056;27;5792;-77
2022/12/11 19:03:50;;;;;;;;;;;;;;;5.37;43.29;96018.34;4229492;28;5972;-77
2022/12/11 19:05:53;;;;;;;;;;;;;;;5.36;43.33;96017.53;4231803;28;5826;-82
2022/12/11 19:07:58;;;;;;;;;;;;;;;5.35;43.38;96015.91;4233704;28;5593;-79
2022/12/11 19:10:03;;;;;;;;;;;;;;;5.33;43.56;96024.94;4227606;28;5784;-82
2022/12/11 19:12:09;;;;;;;;;;;;;;;5.32;43.49;96016.25;4232860;27;5600;-74
2022/12/11 19:14:14;;;;;;;;;;;;;;;5.31;43.50;96011.19;4229415;28;5797;-68
2022/12/11 19:16:28;;;;;;;;;;;;;;;5.34;43.62;96018.72;4229190;28;5598;-71
2022/12/11 19:18:31;;;;;;;;;;;;;;;5.34;43.62;96023.97;4221253;27;5807;-66
2022/12/11 19:20:42;;;;;;;;;;;;;;;5.33;43.54;96015.28;4227225;27;5685;-72
2022/12/11 19:23:08;;;;;;;;;;;;;;;5.33;43.57;96027.56;4211312;28;5767;-71
2022/12/11 19:25:11;;;;;;;;;;;;;;;5.35;43.64;96023.78;4229702;28;5590;-72
2022/12/11 19:27:15;;;;;;;;;;;;;;;5.38;43.56;96025.22;4228364;27;5690;-73
2022/12/11 19:29:22;;;;;;;;;;;;;;;5.36;43.60;96029.81;4225946;27;5601;-76
2022/12/11 19:31:34;;;;;;;;;;;;;;;5.35;43.54;96025.59;4231267;27;5793;-72
2022/12/11 19:33:41;;;;;;;;;;;;;;;5.33;43.61;96036.25;4233999;27;5618;-77
2022/12/11 19:35:44;;;;;;;;;;;;;;;5.34;43.69;96023.97;4228773;27;5926;-75
2022/12/11 19:37:53;;;;;;;;;;;;;;;5.35;43.59;96030.81;4225256;27;5692;-70
2022/12/11 19:39:59;;;;;;;;;;;;;;;5.32;43.56;96026.72;4225856;28;5748;-73
2022/12/11 19:42:01;;;;;;;;;;;;;;;5.34;43.71;96018.72;4221728;27;5681;-74
2022/12/11 19:44:04;;;;;;;;;;;;;;;5.34;43.69;96021.34;4230406;27;5705;-69
2022/12/11 19:46:11;;;;;;;;;;;;;;;5.33;43.63;96019.72;4228048;27;5700;-69
2022/12/11 19:48:15;;;;;;;;;;;;;;;5.34;43.77;96021.34;4229782;27;5700;-70
2022/12/11 19:50:18;;;;;;;;;;;;;;;5.33;43.84;96022.34;4219998;27;5974;-69
2022/12/11 19:52:21;;;;;;;;;;;;;;;5.33;43.65;96017.09;4223269;28;5676;-69
2022/12/11 19:54:25;;;;;;;;;;;;;;;5.33;43.67;96017.09;4228346;27;5805;-71
2022/12/11 19:56:29;;;;;;;;;;;;;;;5.29;43.95;96015.81;4226265;28;5732;-71
2022/12/11 19:58:32;;;;;;;;;;;;;;;5.31;43.76;96024.28;4224375;28;5632;-70
2022/12/11 20:00:37;;;;;;;;;;;;;;;5.29;43.80;96023.66;4227805;28;5862;-70
2022/12/11 20:02:41;;;;;;;;;;;;;;;5.28;43.77;96032.53;4226882;28;5613;-70
2022/12/11 20:04:44;;;;;;;;;;;;;;;5.31;43.80;96034.78;4228750;27;5851;-70
2022/12/11 20:06:47;;;;;;;;;;;;;;;5.33;43.90;96035.44;4230176;27;5740;-73
2022/12/11 20:08:50;;;;;;;;;;;;;;;5.33;43.78;96035.44;4227926;27;5597;-75
2022/12/11 20:11:06;;;;;;;;;;;;;;;5.31;43.79;96025.09;4233162;27;5708;-78
2022/12/11 20:13:16;;;;;;;;;;;;;;;5.34;44.00;96029.19;4231111;27;5681;-76
2022/12/11 20:15:19;;;;;;;;;;;;;;;5.35;43.79;96036.88;4230293;27;5571;-76
2022/12/11 20:17:22;;;;;;;;;;;;;;;5.36;43.93;96041.13;4227470;27;5841;-66